Time;durP1;ratioP1;P1;durP2;ratioP2;P2;SDS_P1;SDS_P2;PMS_P1;PMS_P2;Temp;Humidity;BMP_temperature;BMP_pressure;BME280_temperature;BME280_humidity;BME280_pressure;Samples;Min_cycle;Max_cycle;Signal;HPM_P1;HPM_P2
2023/04/23 00:00:23;;;;;;;4.90;2.93;;;17.00;46.80;;;;;;20806;6817;117622;-75
2023/04/23 00:02:48;;;;;;;3.20;2.90;;;17.00;47.00;;;;;;20784;6817;117176;-75
2023/04/23 00:05:15;;;;;;;3.03;2.83;;;16.60;47.80;;;;;;20798;6817;122816;-74
2023/04/23 00:07:40;;;;;;;3.00;2.78;;;16.80;47.40;;;;;;20584;6817;335748;-74
2023/04/23 00:10:07;;;;;;;2.73;2.63;;;16.70;47.30;;;;;;20736;6832;127359;-74
2023/04/23 00:12:32;;;;;;;4.80;3.00;;;16.80;47.50;;;;;;20805;6816;116955;-75
2023/04/23 00:14:59;;;;;;;3.33;3.05;;;16.60;47.70;;;;;;20584;6816;336122;-74
2023/04/23 00:17:25;;;;;;;3.30;2.70;;;16.80;47.20;;;;;;20792;6822;121367;-74
2023/04/23 00:19:50;;;;;;;2.95;2.75;;;16.70;47.30;;;;;;20788;6822;117681;-75
2023/04/23 00:22:16;;;;;;;3.10;2.90;;;16.50;47.70;;;;;;20791;6822;117386;-76
2023/04/23 00:24:41;;;;;;;2.70;2.50;;;16.40;48.00;;;;;;20797;6822;117269;-75
2023/04/23 00:27:07;;;;;;;3.30;3.00;;;16.20;48.20;;;;;;20578;6822;278440;-74
2023/04/23 00:29:33;;;;;;;3.53;2.87;;;16.80;46.80;;;;;;20588;6822;307707;-74
2023/04/23 00:31:59;;;;;;;3.83;2.80;;;16.80;46.80;;;;;;20774;6822;117766;-75
2023/04/23 00:34:25;;;;;;;3.83;2.87;;;16.60;47.40;;;;;;20790;6822;117674;-74
2023/04/23 00:36:51;;;;;;;3.20;2.75;;;16.60;47.40;;;;;;20580;6822;307310;-74
2023/04/23 00:39:16;;;;;;;3.05;2.75;;;16.70;46.80;;;;;;20582;6822;306830;-74
2023/04/23 00:41:43;;;;;;;3.28;2.97;;;17.20;46.80;;;;;;20574;6822;306057;-75
2023/04/23 00:44:09;;;;;;;3.07;2.73;;;17.20;46.00;;;;;;20576;6822;277679;-76
2023/04/23 00:46:34;;;;;;;2.97;2.67;;;17.50;45.80;;;;;;20795;6822;117338;-75
2023/04/23 00:48:59;;;;;;;2.90;2.60;;;17.20;46.00;;;;;;20787;6822;117569;-75
2023/04/23 00:51:25;;;;;;;4.05;2.95;;;16.90;47.30;;;;;;20578;6822;308431;-75
2023/04/23 00:53:52;;;;;;;4.97;2.80;;;16.90;47.10;;;;;;20552;6822;312585;-75
2023/04/23 00:56:18;;;;;;;3.10;2.80;;;17.20;46.90;;;;;;20585;6822;278388;-75
2023/04/23 00:58:44;;;;;;;4.80;3.20;;;17.40;47.10;;;;;;20578;6822;307993;-76
2023/04/23 01:01:11;;;;;;;3.07;2.83;;;17.50;47.20;;;;;;20786;6820;117206;-75
2023/04/23 01:03:36;;;;;;;2.93;2.70;;;16.90;48.10;;;;;;20787;6821;117254;-74
2023/04/23 01:06:02;;;;;;;3.33;2.90;;;16.80;48.00;;;;;;20764;6821;122220;-75
2023/04/23 01:08:27;;;;;;;4.65;2.95;;;16.60;48.60;;;;;;20795;6821;117207;-75
2023/04/23 01:10:53;;;;;;;3.73;3.00;;;16.30;49.10;;;;;;20785;6821;117003;-75
2023/04/23 01:13:19;;;;;;;3.47;3.17;;;16.10;49.60;;;;;;20581;6821;278817;-75
2023/04/23 01:15:44;;;;;;;4.07;2.93;;;16.30;50.40;;;;;;20759;6821;117253;-75
2023/04/23 01:18:11;;;;;;;2.70;2.50;;;16.10;50.40;;;;;;20785;6821;117750;-74
2023/04/23 01:20:36;;;;;;;3.67;3.00;;;16.10;50.40;;;;;;20566;6822;336570;-75
2023/04/23 01:23:02;;;;;;;3.93;2.93;;;16.30;50.60;;;;;;20786;6822;117032;-75
2023/04/23 01:25:27;;;;;;;2.87;2.67;;;16.30;50.50;;;;;;20787;6822;118072;-74
2023/04/23 01:27:53;;;;;;;3.20;2.70;;;16.10;50.80;;;;;;20770;6822;117653;-75
2023/04/23 01:30:18;;;;;;;3.75;3.10;;;15.90;51.00;;;;;;20578;6822;321139;-75
2023/04/23 01:32:44;;;;;;;3.40;3.10;;;16.10;51.80;;;;;;20779;6822;117315;-74
2023/04/23 01:35:11;;;;;;;3.73;3.00;;;16.10;51.60;;;;;;20788;6822;117751;-75
2023/04/23 01:37:35;;;;;;;3.03;2.70;;;15.90;51.70;;;;;;20776;6822;117095;-75
2023/04/23 01:40:00;;;;;;;3.05;2.75;;;15.80;52.00;;;;;;20675;6818;117333;-75
2023/04/23 01:42:26;;;;;;;4.32;3.37;;;15.70;52.30;;;;;;20586;6818;282635;-75
2023/04/23 01:44:52;;;;;;;4.37;3.50;;;15.90;53.10;;;;;;20435;6831;300333;-74
2023/04/23 01:47:17;;;;;;;3.87;3.33;;;16.20;52.50;;;;;;20776;6831;72625;-75
2023/04/23 01:49:51;;;;;;;3.67;3.37;;;16.20;52.30;;;;;;20555;6831;307395;-75
2023/04/23 01:52:18;;;;;;;4.90;3.20;;;16.50;52.20;;;;;;20541;6831;278291;-75
2023/04/23 01:54:43;;;;;;;3.23;2.97;;;16.50;52.20;;;;;;20758;6831;117700;-75
2023/04/23 01:57:09;;;;;;;4.20;3.27;;;16.40;52.20;;;;;;20549;6831;309477;-74
2023/04/23 01:59:35;;;;;;;3.90;3.60;;;16.50;52.60;;;;;;20539;6833;278912;-75
2023/04/23 02:02:00;;;;;;;3.90;3.50;;;16.60;52.50;;;;;;20553;6818;449687;-75
2023/04/23 02:04:26;;;;;;;4.43;3.17;;;16.60;52.80;;;;;;20841;6803;117223;-75
2023/04/23 02:06:52;;;;;;;4.25;3.50;;;16.50;52.40;;;;;;20554;6818;337316;-75
2023/04/23 02:09:18;;;;;;;4.20;3.43;;;16.70;52.80;;;;;;20550;6828;322519;-74
2023/04/23 02:11:44;;;;;;;4.03;3.20;;;16.70;52.80;;;;;;20777;6816;117600;-75
2023/04/23 02:14:09;;;;;;;3.80;3.50;;;16.50;52.80;;;;;;20799;6818;117623;-75
2023/04/23 02:16:35;;;;;;;3.40;3.10;;;16.20;53.20;;;;;;20805;6818;117008;-75
2023/04/23 02:19:00;;;;;;;3.40;2.90;;;15.90;53.70;;;;;;20804;6818;117298;-75
2023/04/23 02:21:26;;;;;;;3.23;2.90;;;15.70;54.00;;;;;;20804;6820;117547;-75
2023/04/23 02:23:52;;;;;;;2.80;2.60;;;15.40;54.50;;;;;;20771;6820;141295;-75
2023/04/23 02:26:18;;;;;;;3.77;3.40;;;15.40;54.50;;;;;;20589;6820;278016;-75
2023/04/23 02:28:43;;;;;;;3.93;3.07;;;15.60;55.20;;;;;;20790;6820;121950;-75
2023/04/23 02:31:12;;;;;;;3.80;3.50;;;15.70;54.90;;;;;;20575;6820;311833;-75
2023/04/23 02:33:38;;;;;;;4.77;3.17;;;15.80;54.80;;;;;;20780;6820;118194;-75
2023/04/23 02:36:04;;;;;;;3.20;3.00;;;15.80;54.80;;;;;;20769;6820;117519;-75
2023/04/23 02:38:29;;;;;;;3.37;2.97;;;15.60;55.00;;;;;;20793;6820;117120;-74
2023/04/23 02:40:56;;;;;;;3.10;2.80;;;15.30;55.70;;;;;;20789;6820;117630;-75
2023/04/23 02:43:21;;;;;;;2.97;2.77;;;15.20;55.60;;;;;;20791;6820;117454;-75
2023/04/23 02:45:47;;;;;;;3.80;3.50;;;15.10;55.80;;;;;;20557;6820;336604;-75
2023/04/23 02:48:12;;;;;;;3.73;3.20;;;15.40;56.80;;;;;;20575;6820;283222;-75
2023/04/23 02:50:38;;;;;;;3.80;3.40;;;15.70;56.40;;;;;;20594;6821;280324;-75
2023/04/23 02:53:04;;;;;;;3.60;3.30;;;16.00;56.00;;;;;;20595;6821;282475;-76
2023/04/23 02:55:30;;;;;;;3.55;3.30;;;16.20;55.30;;;;;;20580;6821;303611;-76
2023/04/23 02:57:55;;;;;;;3.80;3.50;;;16.40;54.90;;;;;;20549;6821;308594;-75
2023/04/23 03:00:20;;;;;;;4.87;2.80;;;16.50;54.80;;;;;;20793;6821;117339;-75
2023/04/23 03:02:46;;;;;;;3.87;3.42;;;16.30;54.80;;;;;;20581;6821;306980;-75
2023/04/23 03:05:12;;;;;;;3.27;3.00;;;16.20;55.20;;;;;;20797;6821;117080;-76
2023/04/23 03:07:38;;;;;;;3.70;3.40;;;16.00;55.30;;;;;;20578;6821;336756;-76
2023/04/23 03:10:05;;;;;;;3.80;3.50;;;16.20;55.80;;;;;;20570;6821;278888;-75
2023/04/23 03:12:30;;;;;;;3.97;3.57;;;16.20;55.80;;;;;;20581;6821;323900;-75
2023/04/23 03:14:56;;;;;;;3.40;3.10;;;16.40;55.60;;;;;;20791;6821;117259;-76
2023/04/23 03:17:22;;;;;;;3.42;3.22;;;16.20;55.50;;;;;;20578;6821;309607;-76
2023/04/23 03:19:49;;;;;;;3.60;3.30;;;16.10;55.90;;;;;;20568;6821;313900;-75
2023/04/23 03:22:15;;;;;;;3.43;2.93;;;16.30;55.60;;;;;;20807;6819;117819;-76
2023/04/23 03:24:41;;;;;;;3.53;3.22;;;16.10;55.50;;;;;;20590;6820;336736;-75
2023/04/23 03:27:06;;;;;;;3.60;3.40;;;16.10;56.30;;;;;;20585;6820;306765;-75
2023/04/23 03:29:32;;;;;;;3.40;3.20;;;16.30;56.20;;;;;;20791;6820;118108;-75
2023/04/23 03:31:57;;;;;;;3.80;3.13;;;16.10;56.80;;;;;;20768;6820;122181;-75
2023/04/23 03:34:23;;;;;;;3.33;3.00;;;15.80;56.50;;;;;;20792;6820;117810;-75
2023/04/23 03:36:50;;;;;;;4.77;3.60;;;15.60;58.20;;;;;;20577;6820;294260;-74
2023/04/23 03:39:15;;;;;;;4.40;4.00;;;15.60;57.50;;;;;;20583;6820;278600;-74
2023/04/23 03:41:40;;;;;;;3.47;3.27;;;15.90;57.00;;;;;;20788;6820;117178;-74
2023/04/23 03:44:07;;;;;;;4.17;3.77;;;15.90;56.90;;;;;;20561;6820;312226;-75
2023/04/23 03:46:32;;;;;;;3.83;3.43;;;15.90;56.90;;;;;;20790;6820;117243;-76
2023/04/23 03:48:58;;;;;;;3.63;3.33;;;15.80;57.50;;;;;;20798;6820;117283;-75
2023/04/23 03:51:23;;;;;;;4.03;3.73;;;15.50;57.20;;;;;;20580;6820;308353;-75
2023/04/23 03:53:49;;;;;;;4.20;4.00;;;15.60;57.60;;;;;;20564;6820;312589;-75
2023/04/23 03:56:15;;;;;;;3.70;3.50;;;15.70;57.20;;;;;;20798;6820;123109;-76
2023/04/23 03:58:41;;;;;;;3.80;3.50;;;15.70;57.20;;;;;;20799;6820;117121;-75
2023/04/23 04:01:07;;;;;;;5.27;3.50;;;15.20;58.00;;;;;;20791;6821;117579;-75
2023/04/23 04:03:33;;;;;;;3.37;3.17;;;15.20;58.60;;;;;;20787;6821;117743;-75
2023/04/23 04:05:58;;;;;;;4.50;3.10;;;15.00;58.20;;;;;;20776;6821;117621;-76
2023/04/23 04:08:25;;;;;;;3.83;3.53;;;14.80;58.40;;;;;;20577;6821;306508;-75
2023/04/23 04:10:49;;;;;;;4.00;3.27;;;15.10;58.80;;;;;;20788;6821;117309;-75
2023/04/23 04:13:16;;;;;;;3.10;2.90;;;15.10;58.30;;;;;;20792;6821;116334;-76
2023/04/23 04:15:42;;;;;;;3.90;3.60;;;14.90;58.40;;;;;;20560;6821;282713;-75
2023/04/23 04:18:08;;;;;;;3.93;3.73;;;15.10;58.60;;;;;;20556;6818;311482;-74
2023/04/23 04:20:33;;;;;;;3.80;3.60;;;15.40;58.10;;;;;;20600;6806;307257;-74
2023/04/23 04:22:59;;;;;;;3.40;2.73;;;15.60;57.40;;;;;;20838;6806;117174;-75
2023/04/23 04:25:24;;;;;;;2.90;2.80;;;15.60;57.50;;;;;;20835;6806;117399;-75
2023/04/23 04:27:51;;;;;;;4.12;3.70;;;15.30;57.90;;;;;;20578;6806;291939;-75
2023/04/23 04:30:17;;;;;;;3.47;3.17;;;15.30;58.30;;;;;;20810;6806;117783;-74
2023/04/23 04:32:44;;;;;;;3.93;3.30;;;15.30;58.30;;;;;;20833;6806;118201;-74
2023/04/23 04:35:09;;;;;;;3.85;3.65;;;15.20;59.00;;;;;;20616;6804;312099;-75
2023/04/23 04:37:35;;;;;;;3.73;3.53;;;15.20;59.00;;;;;;20832;6805;116775;-74
2023/04/23 04:40:02;;;;;;;3.90;3.60;;;15.20;58.70;;;;;;20814;6805;195448;-74
2023/04/23 04:42:27;;;;;;;3.87;3.67;;;15.00;59.00;;;;;;20814;6805;120642;-75
2023/04/23 04:44:53;;;;;;;3.78;3.47;;;14.80;59.40;;;;;;20843;6805;117125;-75
2023/04/23 04:47:19;;;;;;;3.90;3.60;;;14.70;59.70;;;;;;20841;6805;118005;-74
2023/04/23 04:49:45;;;;;;;4.70;4.30;;;14.60;60.00;;;;;;20544;6805;280606;-74
2023/04/23 04:52:11;;;;;;;4.40;4.10;;;14.80;60.40;;;;;;20611;6805;306983;-74
2023/04/23 04:54:36;;;;;;;4.53;4.23;;;15.20;59.50;;;;;;20608;6806;309941;-75
2023/04/23 04:57:02;;;;;;;4.90;4.50;;;15.50;58.50;;;;;;20590;6806;308140;-74
2023/04/23 04:59:28;;;;;;;4.57;4.28;;;15.70;57.70;;;;;;20808;6806;117031;-76
2023/04/23 05:01:53;;;;;;;5.25;4.70;;;15.50;57.70;;;;;;20604;6806;278858;-76
2023/04/23 05:04:19;;;;;;;4.13;3.83;;;15.60;58.30;;;;;;20616;6806;277112;-76
2023/04/23 05:06:45;;;;;;;4.15;3.85;;;15.90;57.30;;;;;;20620;6806;307184;-75
2023/04/23 05:09:11;;;;;;;4.30;3.90;;;15.90;57.30;;;;;;20605;6806;279913;-75
2023/04/23 05:11:36;;;;;;;4.10;3.77;;;16.10;56.70;;;;;;20623;6806;282553;-75
2023/04/23 05:14:03;;;;;;;4.70;3.45;;;16.20;56.50;;;;;;20457;6806;290702;-75
2023/04/23 05:16:27;;;;;;;3.72;3.42;;;16.30;56.10;;;;;;20579;6806;309946;-74
2023/04/23 05:18:53;;;;;;;3.53;3.30;;;16.30;55.90;;;;;;20827;6806;118680;-74
2023/04/23 05:21:18;;;;;;;3.10;2.90;;;16.00;56.20;;;;;;20793;6806;122150;-73
2023/04/23 05:23:44;;;;;;;3.40;3.08;;;15.60;56.90;;;;;;20585;6806;307801;-74
2023/04/23 05:26:10;;;;;;;2.73;2.53;;;15.40;57.10;;;;;;20833;6806;117257;-73
2023/04/23 05:28:36;;;;;;;3.53;3.33;;;15.40;57.10;;;;;;20605;6806;335985;-76
2023/04/23 05:31:02;;;;;;;3.30;3.10;;;15.40;57.30;;;;;;20629;6806;306356;-75
2023/04/23 05:33:29;;;;;;;3.20;2.90;;;15.70;57.00;;;;;;20839;6806;117056;-75
2023/04/23 05:35:54;;;;;;;3.50;3.20;;;15.50;57.10;;;;;;20598;6806;277715;-75
2023/04/23 05:38:20;;;;;;;3.70;3.40;;;15.70;57.00;;;;;;20626;6806;303342;-79
2023/04/23 05:40:46;;;;;;;2.57;2.47;;;15.70;57.00;;;;;;20843;6806;117495;-74
2023/04/23 05:43:12;;;;;;;3.20;3.00;;;15.70;57.50;;;;;;20621;6806;338077;-74
2023/04/23 05:45:37;;;;;;;2.80;2.60;;;15.70;57.40;;;;;;20835;6804;117261;-74
2023/04/23 05:48:03;;;;;;;3.05;2.85;;;15.60;57.40;;;;;;20824;6805;117062;-72
2023/04/23 05:50:29;;;;;;;3.03;2.77;;;15.40;57.80;;;;;;20837;6805;118088;-72
2023/04/23 05:52:54;;;;;;;3.03;2.73;;;15.20;58.30;;;;;;20618;6805;282062;-72
2023/04/23 05:55:22;;;;;;;2.80;2.60;;;15.40;58.40;;;;;;20834;6805;117064;-73
2023/04/23 05:57:49;;;;;;;3.37;3.17;;;15.40;58.10;;;;;;20586;6805;336534;-74
2023/04/23 06:00:15;;;;;;;3.25;3.05;;;15.60;57.70;;;;;;20616;6805;342139;-77
2023/04/23 06:02:41;;;;;;;2.65;2.55;;;16.00;57.00;;;;;;20622;6805;340077;-76
2023/04/23 06:05:06;;;;;;;2.70;2.50;;;16.20;55.80;;;;;;20836;6805;117621;-76
2023/04/23 06:07:32;;;;;;;2.60;2.37;;;16.10;55.80;;;;;;20838;6806;117447;-76
2023/04/23 06:09:58;;;;;;;3.40;3.20;;;15.40;56.80;;;;;;20829;6806;118090;-76
2023/04/23 06:12:24;;;;;;;3.80;3.60;;;15.40;56.90;;;;;;20624;6806;337201;-76
2023/04/23 06:14:49;;;;;;;7.87;7.37;;;15.60;56.80;;;;;;20610;6806;320929;-76
2023/04/23 06:17:15;;;;;;;10.63;9.83;;;15.90;55.90;;;;;;20598;6806;277149;-74
2023/04/23 06:19:41;;;;;;;5.30;4.90;;;16.20;55.40;;;;;;20532;6806;336087;-74
2023/04/23 06:22:07;;;;;;;7.77;7.07;;;16.60;54.50;;;;;;20595;6806;277640;-74
2023/04/23 06:24:34;;;;;;;4.27;3.97;;;16.50;54.40;;;;;;20837;6806;117127;-75
2023/04/23 06:27:01;;;;;;;3.23;2.80;;;16.40;54.70;;;;;;20637;6806;306970;-74
2023/04/23 06:29:29;;;;;;;5.87;5.33;;;16.50;55.30;;;;;;20846;6806;118731;-74
2023/04/23 06:31:55;;;;;;;25.70;16.37;;;16.40;55.70;;;;;;20836;6806;117578;-74
2023/04/23 06:34:21;;;;;;;12.90;10.23;;;16.40;55.60;;;;;;20627;6806;299132;-78
2023/04/23 06:36:47;;;;;;;4.70;4.40;;;17.00;54.50;;;;;;20625;6806;282035;-75
2023/04/23 06:39:16;;;;;;;18.57;14.47;;;17.00;54.50;;;;;;20622;6806;281628;-74
2023/04/23 06:41:39;;;;;;;13.40;11.03;;;17.40;54.30;;;;;;20807;6806;117592;-74
2023/04/23 06:44:05;;;;;;;2.37;2.17;;;17.40;54.10;;;;;;20815;6806;118010;-74
2023/04/23 06:46:31;;;;;;;2.47;2.27;;;17.30;54.40;;;;;;20836;6806;117858;-74
2023/04/23 06:48:56;;;;;;;4.22;3.80;;;17.20;54.80;;;;;;20624;6806;306598;-71
2023/04/23 06:51:22;;;;;;;2.73;2.50;;;17.40;53.00;;;;;;20839;6806;117632;-71
2023/04/23 06:53:47;;;;;;;1.37;1.27;;;17.50;53.40;;;;;;20805;6806;117257;-71
2023/04/23 06:56:14;;;;;;;1.35;1.35;;;17.50;54.20;;;;;;20833;6806;117662;-71
2023/04/23 06:58:40;;;;;;;6.67;5.30;;;17.50;54.10;;;;;;20834;6804;116930;-72
2023/04/23 07:01:06;;;;;;;8.68;6.70;;;17.50;54.10;;;;;;20827;6805;117114;-75
2023/04/23 07:03:30;;;;;;;1.80;1.70;;;17.60;54.40;;;;;;20832;6805;121473;-71
2023/04/23 07:05:57;;;;;;;1.30;1.20;;;17.90;51.80;;;;;;20611;6805;306570;-71
2023/04/23 07:08:22;;;;;;;1.20;1.20;;;17.90;52.30;;;;;;20631;6805;315001;-72
2023/04/23 07:10:48;;;;;;;1.73;1.00;;;18.30;50.70;;;;;;20844;6805;117143;-74
2023/04/23 07:13:14;;;;;;;0.83;0.83;;;18.30;51.00;;;;;;20830;6805;117105;-71
2023/04/23 07:15:41;;;;;;;2.10;0.90;;;18.10;51.60;;;;;;20825;6805;117399;-72
2023/04/23 07:18:06;;;;;;;1.48;1.33;;;18.30;50.60;;;;;;20585;6806;336651;-74
2023/04/23 07:20:32;;;;;;;2.40;2.20;;;18.30;50.50;;;;;;20610;6806;306644;-73
2023/04/23 07:22:57;;;;;;;3.33;3.13;;;18.70;49.90;;;;;;20827;6806;117499;-72
2023/04/23 07:25:25;;;;;;;1.08;1.08;;;18.80;50.10;;;;;;20784;6806;117869;-73
2023/04/23 07:27:49;;;;;;;1.40;1.33;;;18.80;50.00;;;;;;20593;6806;336987;-73
2023/04/23 07:30:16;;;;;;;2.50;2.30;;;19.00;47.80;;;;;;20830;6806;122709;-73
2023/04/23 07:32:41;;;;;;;2.07;1.97;;;19.10;48.30;;;;;;20837;6806;118055;-73
2023/04/23 07:35:07;;;;;;;2.60;2.30;;;19.10;49.00;;;;;;20630;6806;307889;-73
2023/04/23 07:37:32;;;;;;;1.37;0.93;;;19.50;47.20;;;;;;20624;6806;306581;-74
2023/04/23 07:40:01;;;;;;;2.03;1.93;;;20.30;45.80;;;;;;20591;6806;310630;-73
2023/04/23 07:42:24;;;;;;;0.90;0.90;;;20.30;45.80;;;;;;20793;6806;117299;-73
2023/04/23 07:44:50;;;;;;;2.05;1.65;;;20.50;46.40;;;;;;20585;6806;338833;-75
2023/04/23 07:47:15;;;;;;;1.50;1.40;;;20.70;45.20;;;;;;20819;6806;118533;-73
2023/04/23 07:49:42;;;;;;;2.08;1.37;;;20.80;45.30;;;;;;20637;6806;306694;-73
2023/04/23 07:52:08;;;;;;;1.10;1.00;;;21.20;42.80;;;;;;20630;6806;340605;-74
2023/04/23 07:54:34;;;;;;;1.60;1.50;;;21.20;42.80;;;;;;20829;6806;117120;-73
2023/04/23 07:57:00;;;;;;;1.60;1.50;;;21.10;43.50;;;;;;20620;6806;306328;-75
2023/04/23 07:59:25;;;;;;;0.90;0.90;;;21.20;42.80;;;;;;20846;6806;117510;-73
2023/04/23 08:01:51;;;;;;;1.73;1.20;;;21.10;43.30;;;;;;20826;6806;117881;-75
2023/04/23 08:04:16;;;;;;;1.43;1.43;;;21.00;44.10;;;;;;20841;6806;118521;-73
2023/04/23 08:06:44;;;;;;;1.47;1.37;;;21.20;43.10;;;;;;20632;6806;277071;-73
2023/04/23 08:09:11;;;;;;;1.63;0.90;;;21.10;43.00;;;;;;20843;6804;117734;-73
2023/04/23 08:11:38;;;;;;;0.90;0.90;;;21.30;43.60;;;;;;20838;6805;117907;-73
2023/04/23 08:14:03;;;;;;;1.87;0.90;;;21.30;44.10;;;;;;20610;6805;280969;-74
2023/04/23 08:16:29;;;;;;;0.90;0.90;;;21.70;43.20;;;;;;20627;6805;276856;-74
2023/04/23 08:18:54;;;;;;;1.30;1.00;;;22.10;41.60;;;;;;20631;6805;306563;-74
2023/04/23 08:21:21;;;;;;;1.62;1.40;;;22.40;41.20;;;;;;20629;6805;277769;-74
2023/04/23 08:23:46;;;;;;;1.10;1.10;;;22.60;41.00;;;;;;20818;6805;117280;-74
2023/04/23 08:26:11;;;;;;;1.40;1.30;;;22.50;41.20;;;;;;20603;6805;308442;-74
2023/04/23 08:28:37;;;;;;;1.12;1.00;;;22.60;40.40;;;;;;20635;6806;310815;-75
2023/04/23 08:31:03;;;;;;;1.05;0.95;;;22.80;39.60;;;;;;20621;6806;311655;-74
2023/04/23 08:33:28;;;;;;;0.77;0.77;;;22.90;38.70;;;;;;20834;6806;117675;-72
2023/04/23 08:35:54;;;;;;;1.30;1.30;;;22.70;39.70;;;;;;20817;6806;117472;-73
2023/04/23 08:38:19;;;;;;;1.07;1.07;;;22.30;40.60;;;;;;20617;6806;293120;-74
2023/04/23 08:40:45;;;;;;;1.30;1.20;;;22.30;40.30;;;;;;20839;6806;117528;-73
2023/04/23 08:43:17;;;;;;;1.23;1.20;;;22.10;40.70;;;;;;20617;6806;307375;-73
2023/04/23 08:45:46;;;;;;;1.10;1.07;;;21.90;41.80;;;;;;20731;6806;119816;-74
2023/04/23 08:48:12;;;;;;;1.45;1.35;;;21.90;41.10;;;;;;20605;6806;298374;-73
2023/04/23 08:50:38;;;;;;;0.93;0.93;;;22.00;40.80;;;;;;20804;6806;120191;-73
2023/04/23 08:53:03;;;;;;;0.90;0.90;;;22.00;41.30;;;;;;20803;6806;117291;-73
2023/04/23 08:55:29;;;;;;;0.97;0.57;;;21.80;41.60;;;;;;20805;6806;117222;-73
2023/04/23 08:57:54;;;;;;;1.33;1.20;;;21.70;42.00;;;;;;20502;6806;305908;-73
2023/04/23 09:00:21;;;;;;;1.10;1.00;;;21.90;40.90;;;;;;20644;6737;339761;-73
2023/04/23 09:02:45;;;;;;;0.82;0.82;;;22.30;39.00;;;;;;20544;6783;278557;-73
2023/04/23 09:05:12;;;;;;;1.20;0.80;;;22.80;38.00;;;;;;20479;6842;327838;-73
2023/04/23 09:07:37;;;;;;;0.80;0.80;;;22.70;37.50;;;;;;20488;6842;278875;-73
2023/04/23 09:10:03;;;;;;;1.08;0.70;;;22.90;38.70;;;;;;20461;6842;278585;-73
2023/04/23 09:12:29;;;;;;;2.17;1.07;;;23.00;37.50;;;;;;20495;6842;307908;-72
2023/04/23 09:14:55;;;;;;;1.08;1.08;;;23.00;38.50;;;;;;20481;6842;308532;-72
2023/04/23 09:17:20;;;;;;;1.73;1.10;;;23.00;38.70;;;;;;20694;6842;117312;-74
2023/04/23 09:19:45;;;;;;;0.70;0.70;;;22.80;39.40;;;;;;20677;6842;117985;-73
2023/04/23 09:22:12;;;;;;;1.27;0.90;;;22.40;40.90;;;;;;20708;6840;117431;-73
2023/04/23 09:24:44;;;;;;;0.80;0.80;;;22.40;40.90;;;;;;20489;6841;331358;-75
2023/04/23 09:27:09;;;;;;;0.97;0.97;;;22.60;38.60;;;;;;20683;6841;117215;-76
2023/04/23 09:29:35;;;;;;;1.13;0.90;;;22.70;38.70;;;;;;20666;6841;117850;-76
2023/04/23 09:32:07;;;;;;;0.95;0.90;;;22.60;38.80;;;;;;20491;6841;304180;-77
2023/04/23 09:34:34;;;;;;;1.03;0.90;;;22.80;37.50;;;;;;20752;6841;117142;-76
2023/04/23 09:37:00;;;;;;;0.93;0.73;;;22.80;38.30;;;;;;20525;6841;312823;-77
2023/04/23 09:39:25;;;;;;;0.90;0.90;;;23.00;39.20;;;;;;20713;6841;121498;-77
2023/04/23 09:41:52;;;;;;;1.20;0.70;;;23.10;39.30;;;;;;20684;6842;117876;-77
2023/04/23 09:44:17;;;;;;;0.80;0.80;;;23.10;39.90;;;;;;20706;6842;117458;-77
2023/04/23 09:46:42;;;;;;;0.80;0.77;;;23.10;39.30;;;;;;20696;6842;121301;-76
2023/04/23 09:49:09;;;;;;;0.93;0.83;;;23.10;38.90;;;;;;20482;6842;307624;-77
2023/04/23 09:51:41;;;;;;;0.83;0.83;;;23.60;37.00;;;;;;20690;6842;117279;-77
2023/04/23 09:54:13;;;;;;;1.12;0.80;;;23.60;37.00;;;;;;20461;6842;308085;-76
2023/04/23 09:56:38;;;;;;;0.60;0.60;;;23.90;35.40;;;;;;20693;6842;117393;-75
2023/04/23 09:59:26;;;;;;;1.00;0.90;;;24.00;36.10;;;;;;20488;6842;287718;-75
2023/04/23 10:01:52;;;;;;;0.90;0.90;;;24.10;35.10;;;;;;20451;6842;281553;-74
2023/04/23 10:04:24;;;;;;;0.80;0.80;;;24.30;34.00;;;;;;20154;6842;336657;-75
2023/04/23 10:06:54;;;;;;;1.63;0.90;;;24.50;34.30;;;;;;20500;6842;307647;-76
2023/04/23 10:09:23;;;;;;;0.80;0.80;;;24.70;33.60;;;;;;20708;6842;117404;-74
2023/04/23 10:11:47;;;;;;;0.87;0.87;;;24.50;34.00;;;;;;20484;6842;320244;-74
2023/04/23 10:14:12;;;;;;;1.00;0.93;;;24.40;34.40;;;;;;20484;6842;341765;-74
2023/04/23 10:16:39;;;;;;;0.77;0.77;;;24.50;33.10;;;;;;20483;6841;308380;-75
2023/04/23 10:19:05;;;;;;;0.80;0.80;;;24.30;33.80;;;;;;20691;6842;121584;-76
2023/04/23 10:21:32;;;;;;;1.00;1.00;;;24.20;33.60;;;;;;20439;6842;278462;-75
2023/04/23 10:23:57;;;;;;;1.07;0.97;;;24.20;33.60;;;;;;20435;6842;302739;-76
2023/04/23 10:26:23;;;;;;;1.00;0.70;;;24.30;33.10;;;;;;20656;6842;121908;-76
2023/04/23 10:28:48;;;;;;;0.77;0.77;;;24.30;33.80;;;;;;20718;6842;117788;-75
2023/04/23 10:31:14;;;;;;;0.88;0.80;;;24.00;34.50;;;;;;20481;6842;289474;-75
2023/04/23 10:33:39;;;;;;;1.37;0.80;;;24.10;34.10;;;;;;20514;6840;278754;-75
2023/04/23 10:36:05;;;;;;;1.17;1.00;;;24.30;34.30;;;;;;20473;6841;307776;-75
2023/04/23 10:38:31;;;;;;;0.88;0.88;;;24.60;34.90;;;;;;20669;6841;117801;-75
2023/04/23 10:40:56;;;;;;;1.03;0.83;;;24.50;34.50;;;;;;20688;6841;117368;-75
2023/04/23 10:43:22;;;;;;;1.30;1.00;;;24.20;34.50;;;;;;20474;6841;283118;-74
2023/04/23 10:45:48;;;;;;;1.00;1.00;;;24.10;34.30;;;;;;20478;6841;297826;-75
2023/04/23 10:48:14;;;;;;;0.75;0.75;;;24.20;34.40;;;;;;20711;6841;118100;-75
2023/04/23 10:50:40;;;;;;;0.90;0.90;;;24.20;34.40;;;;;;20717;6841;117431;-75
2023/04/23 10:53:05;;;;;;;1.00;0.90;;;24.00;34.90;;;;;;20526;6842;288785;-75
2023/04/23 10:55:30;;;;;;;1.30;0.95;;;24.00;34.60;;;;;;20481;6842;308787;-75
2023/04/23 10:58:03;;;;;;;0.80;0.80;;;24.20;35.00;;;;;;20721;6842;124123;-75
2023/04/23 11:00:28;;;;;;;0.80;0.80;;;24.10;35.30;;;;;;20741;6842;117750;-75
2023/04/23 11:02:54;;;;;;;0.90;0.90;;;23.90;34.90;;;;;;20465;6842;309163;-75
2023/04/23 11:05:22;;;;;;;1.03;0.87;;;23.90;34.90;;;;;;20523;6842;312063;-75
2023/04/23 11:08:00;;;;;;;0.90;0.90;;;24.00;34.90;;;;;;20703;6842;147587;-76
2023/04/23 11:10:28;;;;;;;1.15;1.05;;;23.90;34.10;;;;;;20496;6842;312118;-74
2023/04/23 11:12:55;;;;;;;0.70;0.70;;;23.90;35.00;;;;;;20723;6842;117581;-75
2023/04/23 11:15:21;;;;;;;0.73;0.73;;;23.80;35.00;;;;;;20779;6842;119284;-75
2023/04/23 11:17:47;;;;;;;0.80;0.80;;;23.60;35.90;;;;;;20707;6842;117554;-74
2023/04/23 11:20:12;;;;;;;0.93;0.93;;;23.70;36.30;;;;;;20520;6842;278422;-75
2023/04/23 11:22:38;;;;;;;0.90;0.90;;;23.70;36.30;;;;;;20736;6842;117335;-74
2023/04/23 11:25:05;;;;;;;3.80;1.20;;;23.90;36.70;;;;;;20521;6842;278223;-74
2023/04/23 11:27:30;;;;;;;1.50;0.97;;;24.20;35.40;;;;;;20509;6842;307773;-74
2023/04/23 11:29:55;;;;;;;0.90;0.90;;;24.50;34.60;;;;;;20705;6842;117833;-75
2023/04/23 11:32:21;;;;;;;1.00;1.00;;;24.40;34.60;;;;;;20510;6842;306134;-75
2023/04/23 11:34:46;;;;;;;0.83;0.83;;;24.40;34.00;;;;;;20735;6842;117318;-75
2023/04/23 11:37:18;;;;;;;1.05;1.05;;;24.30;34.50;;;;;;20512;6842;312113;-75
2023/04/23 11:39:46;;;;;;;1.10;1.10;;;24.40;34.60;;;;;;20502;6842;307908;-75
2023/04/23 11:42:10;;;;;;;1.00;0.90;;;24.40;34.60;;;;;;20724;6842;118931;-75
2023/04/23 11:44:39;;;;;;;1.07;1.07;;;24.30;34.90;;;;;;20506;6840;308271;-75
2023/04/23 11:47:05;;;;;;;1.20;1.00;;;24.30;34.20;;;;;;20516;6841;314837;-74
2023/04/23 11:49:30;;;;;;;1.03;1.03;;;24.50;32.90;;;;;;20731;6841;117248;-74
2023/04/23 11:51:55;;;;;;;1.40;1.20;;;24.30;33.50;;;;;;20496;6841;312637;-75
2023/04/23 11:54:21;;;;;;;1.00;1.00;;;24.20;33.90;;;;;;20721;6841;117568;-75
2023/04/23 11:56:47;;;;;;;1.20;1.00;;;24.00;34.40;;;;;;20497;6841;278517;-75
2023/04/23 11:59:12;;;;;;;0.90;0.90;;;24.00;34.00;;;;;;20734;6841;117217;-75
2023/04/23 12:01:49;;;;;;;1.00;1.00;;;23.80;34.20;;;;;;20731;6841;117267;-75
2023/04/23 12:04:20;;;;;;;1.00;1.00;;;23.50;34.80;;;;;;20519;6842;278105;-75
2023/04/23 12:06:46;;;;;;;0.90;0.90;;;23.70;35.30;;;;;;20525;6842;281318;-75
2023/04/23 12:09:12;;;;;;;1.00;1.00;;;24.00;34.40;;;;;;20520;6842;308042;-75
2023/04/23 12:11:38;;;;;;;0.73;0.73;;;24.40;34.90;;;;;;20729;6842;117221;-74
2023/04/23 12:14:03;;;;;;;1.00;0.90;;;24.40;34.80;;;;;;20705;6842;119760;-75
2023/04/23 12:16:43;;;;;;;0.90;0.90;;;24.20;34.40;;;;;;20726;6842;117251;-75
2023/04/23 12:19:12;;;;;;;0.95;0.93;;;24.10;34.30;;;;;;20507;6842;337171;-75
2023/04/23 12:21:48;;;;;;;0.95;0.80;;;24.30;34.30;;;;;;20524;6842;281439;-75
2023/04/23 12:24:13;;;;;;;1.20;0.90;;;24.60;34.20;;;;;;20528;6842;312650;-75
2023/04/23 12:26:38;;;;;;;0.93;0.90;;;24.90;33.70;;;;;;20743;6842;117363;-75
2023/04/23 12:29:04;;;;;;;0.90;0.90;;;24.80;33.90;;;;;;20729;6842;118268;-75